Time;durP1;ratioP1;P1;durP2;ratioP2;P2;SDS_P1;SDS_P2;PMS_P1;PMS_P2;Temp;Humidity;BMP_temperature;BMP_pressure;BME280_temperature;BME280_humidity;BME280_pressure;Samples;Min_cycle;Max_cycle;Signal;HPM_P1;HPM_P2
2021/04/06 00:01:43;;;;;;;0.80;0.10;;;5.80;49.90;;;;;;4889997;29;20111;-83
2021/04/06 00:04:14;;;;;;;0.77;0.30;;;5.80;49.00;;;;;;4897045;29;20108;-84
2021/04/06 00:06:43;;;;;;;0.83;0.13;;;5.70;49.00;;;;;;4880254;29;20028;-84
2021/04/06 00:09:12;;;;;;;1.23;0.30;;;5.70;48.60;;;;;;4879999;29;20032;-84
2021/04/06 00:11:41;;;;;;;1.70;1.23;;;5.70;48.20;;;;;;4876924;29;20393;-84
2021/04/06 00:14:07;;;;;;;0.47;0.20;;;5.50;47.50;;;;;;4893983;29;20040;-84
2021/04/06 00:16:34;;;;;;;0.20;0.20;;;5.50;47.20;;;;;;4882906;29;20063;-83
2021/04/06 00:19:02;;;;;;;1.13;0.20;;;5.40;46.60;;;;;;4895143;29;20085;-84
2021/04/06 00:21:29;;;;;;;0.53;0.30;;;5.30;47.00;;;;;;4870830;29;20035;-84
2021/04/06 00:23:56;;;;;;;0.63;0.40;;;5.40;47.10;;;;;;4880358;29;20040;-84
2021/04/06 00:26:22;;;;;;;0.90;0.30;;;5.50;47.10;;;;;;4881809;29;20500;-84
2021/04/06 00:28:48;;;;;;;1.10;0.40;;;5.60;47.20;;;;;;4891656;29;20032;-84
2021/04/06 00:31:16;;;;;;;1.90;0.70;;;5.60;47.40;;;;;;4893495;29;20096;-84
2021/04/06 00:33:48;;;;;;;2.73;0.80;;;5.70;47.80;;;;;;4879010;29;20037;-84
2021/04/06 00:36:24;;;;;;;1.30;0.38;;;5.60;48.60;;;;;;4879562;29;20567;-84
2021/04/06 00:38:51;;;;;;;1.10;0.50;;;5.60;49.20;;;;;;4873345;29;20490;-84
2021/04/06 00:41:19;;;;;;;0.83;0.53;;;5.60;49.10;;;;;;4875547;29;20097;-84
2021/04/06 00:43:46;;;;;;;0.90;0.30;;;5.50;49.50;;;;;;4874548;29;20029;-84
2021/04/06 00:46:32;;;;;;;1.57;0.77;;;5.70;50.10;;;;;;4876404;29;20036;-84
2021/04/06 00:48:58;;;;;;;1.23;0.30;;;5.80;49.90;;;;;;4887174;29;20116;-84
2021/04/06 00:51:24;;;;;;;0.80;0.30;;;5.70;50.00;;;;;;4876323;29;20060;-83
2021/04/06 00:53:59;;;;;;;1.00;0.50;;;5.60;50.80;;;;;;4877450;29;20454;-84
2021/04/06 00:56:38;;;;;;;2.70;0.67;;;6.00;50.30;;;;;;4877237;29;21931;-84
2021/04/06 00:59:07;;;;;;;1.17;0.57;;;5.80;50.10;;;;;;4876055;29;20052;-84
2021/04/06 01:01:36;;;;;;;1.00;0.40;;;5.70;50.10;;;;;;4872148;29;20108;-84
2021/04/06 01:04:08;;;;;;;2.63;0.50;;;5.60;50.00;;;;;;4868925;29;20039;-84
2021/04/06 01:07:00;;;;;;;0.93;0.40;;;5.50;50.00;;;;;;4885531;29;20029;-84
2021/04/06 01:09:29;;;;;;;1.37;0.50;;;5.60;50.40;;;;;;4892312;29;20033;-84
2021/04/06 01:11:55;;;;;;;3.23;0.60;;;5.50;50.30;;;;;;4877224;29;20172;-84
2021/04/06 01:14:21;;;;;;;1.53;0.43;;;5.50;50.40;;;;;;4874021;29;20123;-84
2021/04/06 01:16:46;;;;;;;2.07;0.70;;;5.40;50.50;;;;;;4871975;29;20051;-84
2021/04/06 01:19:13;;;;;;;1.93;0.70;;;5.40;50.90;;;;;;4875094;29;20389;-84
2021/04/06 01:21:39;;;;;;;3.13;0.90;;;5.30;51.40;;;;;;4877789;29;20457;-84
2021/04/06 01:24:08;;;;;;;2.13;0.70;;;5.20;51.80;;;;;;4879382;29;20048;-84
2021/04/06 01:26:35;;;;;;;1.17;0.40;;;5.30;52.00;;;;;;4879441;29;20417;-85
2021/04/06 01:29:05;;;;;;;3.93;0.50;;;5.20;51.80;;;;;;4881103;29;20085;-84
2021/04/06 01:31:32;;;;;;;1.77;0.53;;;5.10;52.30;;;;;;4881487;29;20033;-84
2021/04/06 01:34:00;;;;;;;2.77;0.70;;;5.10;52.70;;;;;;4879177;29;20053;-84
2021/04/06 01:36:26;;;;;;;3.47;0.53;;;5.10;52.70;;;;;;4874313;29;20175;-84
2021/04/06 01:38:53;;;;;;;4.70;0.90;;;4.90;52.80;;;;;;4885981;29;20045;-84
2021/04/06 01:41:19;;;;;;;2.50;1.53;;;4.90;53.20;;;;;;4899459;29;20377;-84
2021/04/06 01:43:48;;;;;;;3.67;1.30;;;4.90;53.30;;;;;;4899609;29;20024;-84
2021/04/06 01:46:19;;;;;;;5.17;2.30;;;4.80;53.50;;;;;;4881849;29;20870;-84
2021/04/06 01:48:46;;;;;;;2.17;1.10;;;4.80;53.80;;;;;;4893765;29;20440;-84
2021/04/06 01:51:14;;;;;;;1.33;0.70;;;4.90;53.90;;;;;;4896710;29;20161;-84
2021/04/06 01:53:41;;;;;;;1.57;0.67;;;4.90;54.00;;;;;;4878112;29;20040;-84
2021/04/06 01:56:14;;;;;;;2.97;0.83;;;5.00;54.00;;;;;;4899344;29;20021;-83
2021/04/06 01:58:44;;;;;;;;;;;5.00;53.80;;;;;;4878142;29;20040;-84
2021/04/06 02:04:07;;;;;;;1.27;0.60;;;5.10;53.40;;;;;;4899183;29;20481;-84
2021/04/06 02:06:35;;;;;;;1.53;0.70;;;5.00;53.50;;;;;;4898685;29;20099;-84
2021/04/06 02:09:01;;;;;;;2.70;1.10;;;5.10;53.50;;;;;;4880187;29;20032;-84
2021/04/06 02:11:30;;;;;;;4.60;1.27;;;5.00;53.40;;;;;;4883314;29;20040;-84
2021/04/06 02:14:09;;;;;;;3.13;0.90;;;5.00;53.50;;;;;;4876373;29;20029;-84
2021/04/06 02:17:01;;;;;;;2.50;0.60;;;5.00;53.60;;;;;;4875144;29;20035;-84
2021/04/06 02:19:30;;;;;;;3.57;1.20;;;5.00;53.70;;;;;;4880070;29;20028;-84
2021/04/06 02:22:10;;;;;;;3.37;0.50;;;5.00;53.60;;;;;;4894891;29;20029;-84
2021/04/06 02:24:38;;;;;;;1.53;0.80;;;5.00;53.70;;;;;;4882246;29;20370;-84
2021/04/06 02:27:18;;;;;;;2.43;0.60;;;4.90;53.70;;;;;;4872966;29;20063;-84
2021/04/06 02:29:50;;;;;;;2.10;1.07;;;5.00;53.80;;;;;;4881158;29;20437;-84
2021/04/06 02:32:19;;;;;;;3.25;1.20;;;4.90;54.40;;;;;;4868349;29;20048;-81
2021/04/06 02:34:53;;;;;;;2.00;1.17;;;5.00;53.80;;;;;;4898460;29;20477;-85
2021/04/06 02:37:25;;;;;;;2.67;0.93;;;5.00;53.70;;;;;;4898095;29;20036;-83
2021/04/06 02:40:03;;;;;;;2.23;0.60;;;5.00;53.70;;;;;;4881257;29;20049;-83
2021/04/06 02:42:39;;;;;;;3.43;0.63;;;5.00;53.30;;;;;;4881489;29;20138;-84
2021/04/06 02:45:19;;;;;;;1.13;0.50;;;5.00;53.00;;;;;;4898392;29;20116;-84
2021/04/06 02:47:48;;;;;;;2.60;0.97;;;4.90;53.20;;;;;;4896313;29;20036;-83
2021/04/06 02:50:21;;;;;;;1.43;0.60;;;4.90;53.50;;;;;;4880048;29;20024;-85
2021/04/06 02:52:47;;;;;;;;;;;4.90;53.60;;;;;;4873460;29;20024;-86
2021/04/06 02:55:14;;;;;;;3.13;1.10;;;4.90;53.40;;;;;;4881970;29;20034;-84
2021/04/06 02:57:45;;;;;;;4.53;1.00;;;4.90;53.30;;;;;;4880804;29;20032;-84
2021/04/06 03:00:32;;;;;;;4.37;1.00;;;4.90;53.40;;;;;;4881456;29;20389;-84
2021/04/06 03:03:03;;;;;;;1.47;0.87;;;4.90;53.50;;;;;;4890010;29;20084;-84
2021/04/06 03:05:38;;;;;;;4.37;1.00;;;4.80;53.50;;;;;;4878488;29;20039;-84
2021/04/06 03:08:06;;;;;;;3.57;0.87;;;4.80;53.60;;;;;;4896332;29;20385;-84
2021/04/06 03:10:33;;;;;;;1.60;0.80;;;4.70;53.80;;;;;;4897716;29;20025;-85
2021/04/06 03:13:10;;;;;;;2.57;0.60;;;4.70;53.90;;;;;;4898624;29;20037;-84
2021/04/06 03:15:41;;;;;;;4.67;1.10;;;4.70;54.20;;;;;;4880648;29;20037;-84
2021/04/06 03:18:08;;;;;;;5.83;1.00;;;4.70;54.10;;;;;;4880145;29;20032;-83
2021/04/06 03:20:36;;;;;;;2.27;0.90;;;4.70;54.00;;;;;;4881099;29;20025;-84
2021/04/06 03:23:04;;;;;;;3.03;1.00;;;4.70;53.90;;;;;;4878381;29;20461;-84
2021/04/06 03:25:35;;;;;;;1.53;0.90;;;4.70;54.00;;;;;;4880526;29;20032;-84
2021/04/06 03:28:09;;;;;;;3.20;1.10;;;4.60;54.10;;;;;;4895832;29;20400;-85
2021/04/06 03:30:36;;;;;;;4.07;1.10;;;4.60;54.10;;;;;;4880842;29;20033;-85
2021/04/06 03:33:03;;;;;;;5.13;0.90;;;4.50;53.90;;;;;;4897012;29;20066;-85
2021/04/06 03:35:30;;;;;;;4.37;1.27;;;4.50;54.00;;;;;;4879022;29;20032;-85
2021/04/06 03:37:58;;;;;;;2.30;0.87;;;4.50;54.00;;;;;;4879809;29;20072;-85
2021/04/06 03:40:24;;;;;;;2.50;1.13;;;4.50;54.00;;;;;;4895827;29;20037;-85
2021/04/06 03:42:50;;;;;;;4.23;0.83;;;4.60;54.00;;;;;;4874149;29;20032;-85
2021/04/06 03:45:16;;;;;;;4.27;1.50;;;4.60;53.80;;;;;;4895136;29;20032;-85
2021/04/06 03:47:59;;;;;;;4.03;1.17;;;4.60;53.80;;;;;;4880269;29;20032;-85
2021/04/06 03:50:35;;;;;;;2.65;0.88;;;4.50;53.90;;;;;;4880859;29;20040;-85
2021/04/06 03:53:09;;;;;;;3.33;1.33;;;4.40;53.80;;;;;;4898727;29;20032;-85
2021/04/06 03:55:37;;;;;;;4.13;1.10;;;4.40;53.70;;;;;;4895549;29;20119;-85
2021/04/06 03:58:12;;;;;;;2.03;1.00;;;4.40;53.60;;;;;;4897830;29;20036;-85
2021/04/06 04:00:38;;;;;;;3.23;1.37;;;4.30;53.70;;;;;;4871169;29;20052;-85
2021/04/06 04:03:04;;;;;;;5.20;2.70;;;4.30;53.90;;;;;;4878999;29;20032;-85
2021/04/06 04:05:30;;;;;;;3.27;1.23;;;4.30;53.70;;;;;;4875171;29;20212;-85
2021/04/06 04:07:56;;;;;;;1.57;1.00;;;4.30;53.70;;;;;;4896202;29;20036;-85
2021/04/06 04:10:22;;;;;;;1.90;1.20;;;4.30;53.70;;;;;;4877835;29;20048;-85
2021/04/06 04:12:48;;;;;;;3.33;1.00;;;4.30;53.70;;;;;;4877226;29;20115;-85
2021/04/06 04:15:15;;;;;;;4.30;1.27;;;4.30;53.80;;;;;;4896204;29;20111;-85
2021/04/06 04:17:41;;;;;;;1.40;0.73;;;4.30;53.70;;;;;;4873973;29;20053;-85
2021/04/06 04:20:11;;;;;;;2.63;1.00;;;4.20;53.70;;;;;;4897443;29;20171;-85
2021/04/06 04:22:37;;;;;;;2.43;0.90;;;4.20;53.50;;;;;;4879705;29;20071;-85
2021/04/06 04:25:04;;;;;;;2.20;1.20;;;4.20;53.40;;;;;;4895185;29;20052;-84
2021/04/06 04:27:30;;;;;;;3.97;1.50;;;4.20;53.50;;;;;;4892268;29;20438;-84
2021/04/06 04:29:56;;;;;;;3.23;1.70;;;4.20;53.30;;;;;;4879731;29;20127;-84
2021/04/06 04:32:21;;;;;;;4.40;2.40;;;4.10;53.50;;;;;;4879698;29;20032;-84
2021/04/06 04:34:50;;;;;;;5.93;3.80;;;4.00;53.50;;;;;;4895836;29;20079;-85
2021/04/06 04:37:16;;;;;;;2.87;1.33;;;4.00;53.50;;;;;;4879099;29;20064;-85
2021/04/06 04:39:42;;;;;;;4.53;1.70;;;4.00;53.40;;;;;;4876350;29;20059;-85
2021/04/06 04:42:08;;;;;;;3.47;1.90;;;3.90;53.40;;;;;;4881124;29;20108;-85
2021/04/06 04:44:34;;;;;;;4.57;1.70;;;4.00;53.30;;;;;;4876805;29;20430;-85
2021/04/06 04:46:59;;;;;;;4.77;2.20;;;4.00;53.10;;;;;;4876820;29;20060;-84
2021/04/06 04:49:25;;;;;;;5.93;2.40;;;4.00;53.00;;;;;;4876920;29;20036;-84
2021/04/06 04:51:51;;;;;;;5.03;1.80;;;4.00;53.00;;;;;;4878175;29;20061;-84
2021/04/06 04:54:17;;;;;;;4.13;1.67;;;4.10;53.10;;;;;;4876530;29;20033;-84
2021/04/06 04:56:43;;;;;;;7.13;1.43;;;4.10;53.10;;;;;;4876738;29;20108;-84
2021/04/06 04:59:08;;;;;;;3.53;1.63;;;4.00;53.30;;;;;;4877404;29;20477;-85
2021/04/06 05:01:34;;;;;;;4.83;1.70;;;4.00;53.40;;;;;;4870690;29;20021;-84
2021/04/06 05:04:00;;;;;;;7.20;2.43;;;4.00;53.40;;;;;;4876054;29;20477;-85
2021/04/06 05:06:25;;;;;;;4.87;2.03;;;4.00;53.50;;;;;;4877432;29;20021;-85
2021/04/06 05:08:51;;;;;;;4.40;2.43;;;4.00;53.60;;;;;;4876289;29;20132;-85
2021/04/06 05:11:17;;;;;;;8.13;1.90;;;3.90;53.60;;;;;;4876491;29;20029;-85
2021/04/06 05:13:42;;;;;;;3.97;1.93;;;4.00;53.70;;;;;;4876690;29;20089;-84
2021/04/06 05:16:08;;;;;;;5.03;2.03;;;4.00;53.70;;;;;;4876775;29;20069;-85
2021/04/06 05:18:34;;;;;;;3.27;1.90;;;4.00;53.70;;;;;;4870484;29;20398;-85
2021/04/06 05:20:59;;;;;;;3.63;2.10;;;4.00;53.70;;;;;;4876437;29;20033;-84
2021/04/06 05:23:25;;;;;;;2.77;1.60;;;4.10;53.90;;;;;;4877527;29;20114;-85
2021/04/06 05:25:51;;;;;;;5.07;2.13;;;4.00;53.70;;;;;;4876370;29;20029;-85
2021/04/06 05:28:17;;;;;;;3.40;1.67;;;4.00;53.90;;;;;;4864873;29;20033;-85
2021/04/06 05:30:42;;;;;;;7.60;2.13;;;3.90;53.80;;;;;;4875645;29;20123;-85
2021/04/06 05:33:08;;;;;;;8.00;2.83;;;3.90;53.90;;;;;;4876155;29;20423;-85
2021/04/06 05:35:34;;;;;;;10.80;4.83;;;3.90;53.70;;;;;;4875256;29;20095;-85
2021/04/06 05:37:59;;;;;;;9.43;5.13;;;3.90;53.90;;;;;;4876700;29;20037;-84
2021/04/06 05:40:26;;;;;;;10.80;5.10;;;3.90;53.90;;;;;;4888886;29;20077;-84
2021/04/06 05:42:52;;;;;;;7.90;4.37;;;3.90;54.00;;;;;;4874334;29;20384;-83
2021/04/06 05:45:21;;;;;;;12.37;4.23;;;4.00;54.20;;;;;;4876794;29;20572;-83
2021/04/06 05:47:53;;;;;;;10.80;4.47;;;4.00;54.20;;;;;;4877823;29;20112;-84
2021/04/06 05:50:19;;;;;;;14.50;5.30;;;4.00;54.20;;;;;;4876647;29;21525;-84
2021/04/06 05:52:45;;;;;;;15.00;4.97;;;4.00;54.40;;;;;;4875237;29;20055;-83
2021/04/06 05:55:12;;;;;;;6.10;3.60;;;4.00;54.30;;;;;;4889829;29;20037;-84
2021/04/06 05:57:38;;;;;;;15.70;4.50;;;4.00;54.40;;;;;;4877094;29;20080;-83
2021/04/06 06:00:10;;;;;;;16.37;4.57;;;4.00;54.40;;;;;;4887485;29;20120;-83
2021/04/06 06:02:36;;;;;;;9.90;3.05;;;3.90;54.80;;;;;;4869311;29;20028;-84
2021/04/06 06:05:03;;;;;;;6.83;3.80;;;3.90;54.90;;;;;;4876517;29;20041;-83
2021/04/06 06:07:29;;;;;;;11.83;6.43;;;4.00;55.00;;;;;;4876858;29;20029;-83
2021/04/06 06:09:54;;;;;;;17.40;7.87;;;4.00;54.90;;;;;;4877319;29;20043;-84
2021/04/06 06:12:21;;;;;;;8.57;4.37;;;4.10;54.70;;;;;;4880006;29;20084;-84
2021/04/06 06:14:51;;;;;;;10.33;4.50;;;4.00;54.60;;;;;;4895744;29;20036;-83
2021/04/06 06:17:23;;;;;;;11.83;4.43;;;3.90;54.50;;;;;;4881409;29;20116;-83
2021/04/06 06:19:54;;;;;;;11.13;3.80;;;3.80;54.60;;;;;;4880326;29;20044;-83
2021/04/06 06:22:24;;;;;;;7.57;3.40;;;3.80;54.80;;;;;;4879646;29;20386;-83
2021/04/06 06:25:00;;;;;;;11.07;3.37;;;3.70;54.80;;;;;;4879019;29;20021;-83
2021/04/06 06:27:38;;;;;;;11.10;3.13;;;3.80;54.80;;;;;;4877446;29;20037;-83
2021/04/06 06:30:33;;;;;;;9.97;3.47;;;3.80;54.70;;;;;;4879462;29;20031;-83
2021/04/06 06:33:34;;;;;;;11.63;4.90;;;3.80;54.60;;;;;;4894894;29;20037;-84
2021/04/06 06:36:09;;;;;;;7.20;3.90;;;3.90;54.60;;;;;;4859712;29;20477;-83
2021/04/06 06:38:39;;;;;;;10.57;4.50;;;3.90;54.40;;;;;;4876134;29;20046;-84
2021/04/06 06:41:21;;;;;;;8.80;4.00;;;3.90;54.30;;;;;;4888544;29;20037;-84
2021/04/06 06:43:51;;;;;;;10.90;4.70;;;4.00;54.30;;;;;;4877788;29;20037;-83
2021/04/06 06:46:24;;;;;;;8.47;4.30;;;4.00;54.10;;;;;;4871522;29;20057;-83
2021/04/06 06:49:05;;;;;;;8.67;6.40;;;4.00;54.20;;;;;;4875773;29;20021;-83
2021/04/06 06:51:36;;;;;;;10.20;6.30;;;4.00;54.30;;;;;;4880642;29;20099;-83
2021/04/06 06:54:03;;;;;;;12.33;7.03;;;4.00;54.70;;;;;;4873962;29;20037;-84
2021/04/06 06:56:39;;;;;;;9.07;5.80;;;4.00;54.10;;;;;;4876472;29;20029;-83
2021/04/06 06:59:06;;;;;;;8.63;3.93;;;4.00;54.20;;;;;;4892060;29;20036;-83
2021/04/06 07:01:34;;;;;;;8.33;3.70;;;4.00;53.90;;;;;;4874399;29;20049;-83
2021/04/06 07:04:12;;;;;;;6.77;3.23;;;4.00;53.80;;;;;;4878917;29;20077;-83
2021/04/06 07:06:43;;;;;;;7.23;4.30;;;4.10;53.80;;;;;;4876673;29;20033;-83
2021/04/06 07:09:28;;;;;;;13.50;3.17;;;4.10;53.50;;;;;;4876618;29;20028;-83
2021/04/06 07:11:59;;;;;;;7.40;2.83;;;4.20;53.30;;;;;;4875289;29;20029;-83
2021/04/06 07:14:27;;;;;;;5.67;2.77;;;4.20;53.10;;;;;;4877990;29;20100;-83
2021/04/06 07:16:57;;;;;;;4.07;2.30;;;4.20;53.00;;;;;;4876860;29;20124;-83
2021/04/06 07:19:24;;;;;;;4.70;2.80;;;4.30;52.70;;;;;;4877058;29;20032;-84
2021/04/06 07:21:59;;;;;;;5.60;2.60;;;4.30;52.50;;;;;;4874962;29;22162;-83
2021/04/06 07:24:32;;;;;;;5.97;2.20;;;4.30;52.20;;;;;;4871061;29;20034;-83
2021/04/06 07:26:57;;;;;;;;;;;4.40;51.90;;;;;;4893057;29;20052;-83
2021/04/06 07:29:24;;;;;;;5.13;2.57;;;4.40;51.80;;;;;;4878884;29;20265;-84
2021/04/06 07:31:50;;;;;;;5.93;2.50;;;4.60;51.50;;;;;;4877825;29;20390;-84
2021/04/06 07:34:18;;;;;;;13.13;5.37;;;4.70;51.30;;;;;;4894094;29;20116;-84
2021/04/06 07:36:45;;;;;;;6.17;2.90;;;4.90;51.20;;;;;;4894373;29;20516;-84
2021/04/06 07:39:13;;;;;;;7.67;2.47;;;5.00;51.00;;;;;;4890979;29;20497;-83
2021/04/06 07:41:44;;;;;;;6.33;3.33;;;5.20;50.90;;;;;;4878450;29;20037;-84
2021/04/06 07:44:11;;;;;;;15.87;3.10;;;5.40;50.80;;;;;;4878980;29;20029;-83
2021/04/06 07:46:45;;;;;;;24.40;6.43;;;5.60;50.50;;;;;;4890978;29;20120;-83
2021/04/06 07:49:22;;;;;;;9.03;2.87;;;5.80;50.50;;;;;;4875991;29;20104;-83
2021/04/06 07:51:50;;;;;;;9.33;3.87;;;6.00;49.80;;;;;;4879474;29;20424;-83
2021/04/06 07:54:32;;;;;;;7.33;2.37;;;6.10;49.50;;;;;;4877012;29;20398;-83
2021/04/06 07:57:03;;;;;;;6.97;2.40;;;6.10;49.00;;;;;;4878264;29;20489;-83
2021/04/06 07:59:29;;;;;;;3.13;1.63;;;6.10;48.90;;;;;;4879096;29;20278;-83
2021/04/06 08:01:54;;;;;;;4.90;1.57;;;6.20;48.80;;;;;;4877876;29;20033;-84
2021/04/06 08:04:25;;;;;;;9.07;2.27;;;6.30;48.60;;;;;;4891715;29;20406;-83
2021/04/06 08:06:56;;;;;;;9.17;3.70;;;6.30;48.00;;;;;;4893296;29;20037;-83
2021/04/06 08:09:42;;;;;;;2.73;1.67;;;6.50;48.20;;;;;;4877322;29;20033;-83
2021/04/06 08:12:14;;;;;;;6.37;2.10;;;6.70;47.90;;;;;;4877356;29;20044;-84
2021/04/06 08:15:16;;;;;;;6.00;1.92;;;7.00;47.50;;;;;;4878448;29;20133;-84
2021/04/06 08:17:44;;;;;;;5.43;1.80;;;7.30;47.20;;;;;;4861273;29;20511;-83
2021/04/06 08:20:46;;;;;;;3.27;1.47;;;7.40;46.90;;;;;;4893491;29;20063;-84
2021/04/06 08:23:14;;;;;;;2.30;1.10;;;7.50;46.20;;;;;;4844827;29;20037;-84
2021/04/06 08:25:43;;;;;;;1.73;0.77;;;7.50;45.70;;;;;;4871389;29;20393;-84
2021/04/06 08:28:26;;;;;;;4.53;1.27;;;7.40;44.40;;;;;;4877881;29;20136;-83
2021/04/06 08:30:52;;;;;;;1.48;0.70;;;7.40;44.20;;;;;;4877931;29;20033;-84
2021/04/06 08:33:25;;;;;;;2.63;1.00;;;7.60;43.50;;;;;;4891483;29;20081;-83
2021/04/06 08:35:53;;;;;;;2.13;1.10;;;7.50;43.00;;;;;;4886884;29;20427;-84
2021/04/06 08:38:22;;;;;;;4.73;0.63;;;7.50;43.30;;;;;;4892006;29;20044;-84
2021/04/06 08:40:51;;;;;;;2.00;0.67;;;7.50;42.70;;;;;;4897034;29;20865;-84
2021/04/06 08:43:19;;;;;;;1.43;0.57;;;7.50;42.20;;;;;;4895571;29;20088;-83
2021/04/06 08:46:05;;;;;;;2.00;1.03;;;7.50;41.80;;;;;;4876654;29;20036;-84
2021/04/06 08:48:44;;;;;;;7.03;1.40;;;7.50;40.90;;;;;;4878803;29;20119;-84
2021/04/06 08:51:26;;;;;;;0.93;0.50;;;7.40;40.40;;;;;;4891928;29;20072;-84
2021/04/06 08:53:54;;;;;;;1.50;0.57;;;7.30;40.50;;;;;;4894586;29;20048;-83
2021/04/06 08:56:23;;;;;;;3.13;0.70;;;7.30;40.50;;;;;;4894647;29;20478;-83
2021/04/06 08:58:49;;;;;;;4.43;0.70;;;7.40;40.10;;;;;;4892906;29;20036;-84
2021/04/06 09:01:15;;;;;;;0.60;0.37;;;7.50;39.70;;;;;;4878452;29;22310;-84
2021/04/06 09:03:41;;;;;;;2.37;0.50;;;7.60;39.20;;;;;;4868236;29;20032;-84
2021/04/06 09:06:11;;;;;;;1.20;0.50;;;7.70;38.60;;;;;;4877912;29;20032;-84
2021/04/06 09:08:52;;;;;;;2.03;0.57;;;7.80;38.40;;;;;;4878249;29;20039;-83
2021/04/06 09:11:20;;;;;;;3.50;0.67;;;7.80;37.80;;;;;;4877291;29;20106;-84
2021/04/06 09:13:50;;;;;;;5.37;0.70;;;7.90;37.90;;;;;;4878575;29;20115;-84
2021/04/06 09:16:36;;;;;;;3.73;1.07;;;7.80;37.50;;;;;;4893097;29;20037;-84
2021/04/06 09:19:09;;;;;;;3.83;1.07;;;7.80;37.50;;;;;;4877825;29;20509;-84
2021/04/06 09:21:36;;;;;;;4.67;1.33;;;7.80;37.40;;;;;;4893335;29;20104;-84
2021/04/06 09:24:05;;;;;;;4.53;1.10;;;7.90;37.30;;;;;;4893955;29;20064;-84
2021/04/06 09:26:31;;;;;;;3.03;0.50;;;7.80;37.00;;;;;;4890929;29;20481;-84
2021/04/06 09:29:04;;;;;;;1.37;0.37;;;7.70;36.80;;;;;;4894468;29;20032;-84
2021/04/06 09:31:32;;;;;;;1.87;0.60;;;7.60;36.20;;;;;;4893980;29;20180;-84
2021/04/06 09:34:08;;;;;;;1.13;0.40;;;7.60;36.00;;;;;;4878849;29;20025;-84
2021/04/06 09:36:34;;;;;;;1.53;0.40;;;7.50;35.70;;;;;;4893487;29;20099;-84
2021/04/06 09:39:03;;;;;;;1.47;0.50;;;7.50;35.40;;;;;;4891623;29;20048;-84
2021/04/06 09:41:35;;;;;;;3.03;1.27;;;7.60;35.30;;;;;;4873822;29;20037;-84
2021/04/06 09:44:05;;;;;;;2.30;0.88;;;7.60;34.80;;;;;;4889753;29;20056;-84
2021/04/06 09:46:37;;;;;;;2.60;0.47;;;7.40;34.40;;;;;;4892980;29;20373;-84
2021/04/06 09:49:03;;;;;;;2.65;0.60;;;7.30;34.20;;;;;;4878555;29;20119;-84
2021/04/06 09:51:29;;;;;;;8.90;1.90;;;7.40;34.50;;;;;;4895146;29;20043;-84
2021/04/06 09:53:55;;;;;;;4.40;1.73;;;7.50;34.30;;;;;;4898136;29;20028;-84
2021/04/06 09:56:21;;;;;;;2.53;1.00;;;7.50;34.30;;;;;;4881068;29;20386;-84
2021/04/06 09:58:47;;;;;;;2.27;1.10;;;7.60;34.10;;;;;;4894075;29;20040;-84
2021/04/06 10:01:23;;;;;;;4.20;0.90;;;7.70;33.70;;;;;;4896403;29;20028;-84
2021/04/06 10:03:53;;;;;;;4.97;1.03;;;7.90;33.50;;;;;;4884652;29;20024;-84
2021/04/06 10:06:19;;;;;;;2.27;0.70;;;8.00;33.80;;;;;;4899041;29;20388;-84
2021/04/06 10:08:44;;;;;;;5.63;0.70;;;8.10;33.90;;;;;;4881330;29;20040;-84
2021/04/06 10:11:10;;;;;;;1.40;0.73;;;8.10;34.20;;;;;;4878911;29;20045;-84
2021/04/06 10:13:38;;;;;;;2.40;0.87;;;8.00;33.30;;;;;;4880241;29;20637;-84
2021/04/06 10:16:13;;;;;;;6.27;0.67;;;7.90;33.40;;;;;;4893923;29;20037;-85
2021/04/06 10:18:42;;;;;;;1.90;0.30;;;7.90;33.10;;;;;;4883261;29;20393;-89
2021/04/06 10:21:23;;;;;;;9.23;1.67;;;7.90;33.20;;;;;;4896596;29;20485;-86
2021/04/06 10:23:50;;;;;;;6.07;1.00;;;7.90;33.00;;;;;;4896272;29;20074;-86
2021/04/06 10:26:18;;;;;;;1.10;0.50;;;8.10;33.30;;;;;;4881834;29;20047;-86
2021/04/06 10:28:44;;;;;;;1.13;0.37;;;8.20;33.10;;;;;;4880622;29;20772;-86
2021/04/06 10:31:10;;;;;;;5.13;0.73;;;8.00;32.70;;;;;;4882016;29;20038;-86
2021/04/06 10:33:40;;;;;;;2.30;0.80;;;8.10;32.90;;;;;;4881012;29;20079;-86
2021/04/06 10:36:18;;;;;;;0.70;0.30;;;8.20;33.50;;;;;;4881587;29;20064;-86
2021/04/06 10:38:44;;;;;;;1.73;0.40;;;8.20;32.80;;;;;;4880656;29;20072;-86
2021/04/06 10:41:11;;;;;;;3.63;0.30;;;8.20;33.30;;;;;;4898701;29;20376;-85
2021/04/06 10:43:42;;;;;;;3.03;0.87;;;8.20;33.10;;;;;;4896913;29;20028;-84
2021/04/06 10:46:08;;;;;;;0.93;0.30;;;8.10;33.10;;;;;;4893710;29;20035;-85
2021/04/06 10:48:51;;;;;;;2.27;0.40;;;7.80;32.80;;;;;;4895090;29;20032;-85
2021/04/06 10:51:24;;;;;;;3.27;1.00;;;7.50;32.50;;;;;;4893977;29;20382;-85
2021/04/06 10:53:59;;;;;;;3.43;0.70;;;7.30;32.60;;;;;;4879742;29;20093;-84
2021/04/06 10:56:31;;;;;;;1.87;0.50;;;7.30;32.50;;;;;;4876083;29;20060;-85
2021/04/06 10:59:00;;;;;;;2.63;0.20;;;7.30;32.80;;;;;;4896504;29;20028;-84
2021/04/06 11:01:36;;;;;;;0.97;0.30;;;7.30;32.60;;;;;;4879910;29;20032;-85
2021/04/06 11:04:17;;;;;;;1.10;0.40;;;7.20;31.80;;;;;;4896339;29;20025;-84
2021/04/06 11:07:04;;;;;;;4.00;0.33;;;7.10;31.60;;;;;;4877430;29;20481;-85
2021/04/06 11:09:39;;;;;;;1.13;0.40;;;7.00;31.50;;;;;;4895733;29;20028;-84
2021/04/06 11:12:09;;;;;;;5.67;1.50;;;7.00;31.60;;;;;;4879145;29;20017;-84
2021/04/06 11:14:36;;;;;;;2.07;0.47;;;7.00;31.50;;;;;;4879654;29;20025;-84
2021/04/06 11:17:05;;;;;;;5.60;0.90;;;6.80;31.90;;;;;;4880479;29;20032;-85
2021/04/06 11:19:37;;;;;;;5.53;2.20;;;7.00;32.40;;;;;;4895063;29;20074;-84
2021/04/06 11:22:06;;;;;;;5.70;0.70;;;7.00;32.50;;;;;;4878191;29;20033;-85
2021/04/06 11:24:32;;;;;;;1.13;0.30;;;7.00;32.30;;;;;;4896674;29;20029;-84
2021/04/06 11:27:00;;;;;;;5.80;0.47;;;7.00;32.50;;;;;;4878484;29;20076;-85
2021/04/06 11:29:28;;;;;;;1.53;0.40;;;6.70;31.70;;;;;;4897016;29;20111;-85
2021/04/06 11:31:58;;;;;;;8.17;3.93;;;6.60;32.40;;;;;;4879615;29;20068;-85
2021/04/06 11:34:24;;;;;;;5.20;1.60;;;6.90;33.00;;;;;;4878909;29;20115;-85
2021/04/06 11:36:50;;;;;;;0.97;0.47;;;6.90;32.80;;;;;;4891138;29;20088;-85
2021/04/06 11:39:18;;;;;;;1.23;0.33;;;6.90;32.60;;;;;;4879426;29;20051;-83
2021/04/06 11:41:45;;;;;;;2.07;0.77;;;6.90;32.60;;;;;;4879643;29;20092;-84
2021/04/06 11:44:18;;;;;;;1.73;0.30;;;6.90;33.20;;;;;;4892850;29;20496;-84
2021/04/06 11:46:45;;;;;;;3.70;0.60;;;6.90;33.30;;;;;;4890650;29;20028;-84
2021/04/06 11:49:13;;;;;;;3.57;0.60;;;7.00;33.20;;;;;;4879681;29;20028;-85
2021/04/06 11:51:40;;;;;;;2.70;0.60;;;6.90;32.90;;;;;;4892738;29;20025;-85
2021/04/06 11:54:08;;;;;;;1.57;0.50;;;7.00;33.00;;;;;;4879323;29;20509;-85
2021/04/06 11:56:34;;;;;;;2.23;0.20;;;6.90;33.10;;;;;;4876944;29;20029;-85
2021/04/06 11:59:02;;;;;;;1.50;0.40;;;7.00;33.10;;;;;;4877433;29;20060;-85
2021/04/06 12:01:28;;;;;;;1.77;0.30;;;7.10;33.80;;;;;;4875537;29;20041;-83
2021/04/06 12:03:55;;;;;;;5.77;1.00;;;7.10;33.60;;;;;;4879971;29;20033;-83
2021/04/06 12:06:21;;;;;;;6.30;0.73;;;7.00;33.00;;;;;;4896412;29;20033;-83
2021/04/06 12:08:47;;;;;;;2.57;0.40;;;6.90;33.50;;;;;;4898024;29;20405;-83
2021/04/06 12:11:12;;;;;;;0.40;0.20;;;6.90;33.70;;;;;;4901874;29;20044;-83
2021/04/06 12:13:39;;;;;;;1.63;0.47;;;7.00;33.70;;;;;;4896887;29;21118;-82
2021/04/06 12:16:05;;;;;;;3.93;0.70;;;7.20;33.70;;;;;;4896356;29;20032;-83
2021/04/06 12:18:31;;;;;;;2.57;0.40;;;7.30;33.40;;;;;;4875443;29;20536;-83
2021/04/06 12:20:57;;;;;;;1.50;0.30;;;7.30;33.70;;;;;;4878664;29;20044;-82
2021/04/06 12:23:23;;;;;;;2.77;0.47;;;7.40;33.90;;;;;;4878737;29;20029;-83
2021/04/06 12:25:48;;;;;;;1.07;0.40;;;7.60;34.20;;;;;;4895043;29;20042;-82
2021/04/06 12:28:14;;;;;;;2.57;0.37;;;7.70;34.20;;;;;;4878822;29;20067;-82
2021/04/06 12:30:40;;;;;;;0.90;0.20;;;7.60;33.70;;;;;;4878917;29;20036;-83
2021/04/06 12:33:05;;;;;;;2.30;0.40;;;7.50;33.90;;;;;;4892735;29;20089;-82
2021/04/06 12:35:39;;;;;;;1.60;0.27;;;7.60;34.20;;;;;;4895600;29;20040;-83
2021/04/06 12:38:05;;;;;;;1.17;0.47;;;7.80;34.20;;;;;;4890599;29;20032;-82
2021/04/06 12:40:32;;;;;;;1.93;0.80;;;7.70;33.60;;;;;;4875350;29;20087;-82
2021/04/06 12:42:59;;;;;;;3.10;0.90;;;7.60;34.10;;;;;;4873552;29;20029;-82
2021/04/06 12:45:25;;;;;;;2.43;0.77;;;7.90;34.60;;;;;;4875807;29;20057;-82
2021/04/06 12:47:52;;;;;;;2.53;1.30;;;7.90;34.70;;;;;;4875904;29;20029;-83
2021/04/06 12:50:18;;;;;;;2.90;1.70;;;7.90;34.80;;;;;;4877442;29;20036;-83
2021/04/06 12:52:44;;;;;;;2.67;1.43;;;7.80;34.70;;;;;;4876622;29;20024;-82
2021/04/06 12:55:10;;;;;;;1.63;0.47;;;7.80;35.10;;;;;;4875721;29;20071;-83
2021/04/06 12:57:36;;;;;;;0.67;0.43;;;7.70;34.90;;;;;;4876820;29;20501;-82
2021/04/06 13:00:05;;;;;;;0.70;0.30;;;7.60;35.10;;;;;;4872906;29;20069;-83
2021/04/06 13:02:33;;;;;;;1.70;0.47;;;7.70;35.10;;;;;;4874214;29;20088;-83
2021/04/06 13:04:59;;;;;;;4.77;0.30;;;7.70;35.30;;;;;;4875708;29;20497;-82
2021/04/06 13:07:24;;;;;;;1.43;0.50;;;7.60;35.10;;;;;;4873205;29;20034;-83
2021/04/06 13:09:50;;;;;;;3.43;0.70;;;7.60;34.90;;;;;;4876412;29;20033;-84
2021/04/06 13:12:16;;;;;;;3.83;1.20;;;7.50;34.70;;;;;;4873548;29;20033;-83
2021/04/06 13:14:42;;;;;;;2.40;1.10;;;7.50;34.60;;;;;;4894501;29;20036;-82